createdAt,value
2023-02-14T00:02:57.267Z,51.37
2023-02-14T00:06:20.031Z,51.50
2023-02-14T00:09:42.488Z,46.05
2023-02-14T00:13:05.461Z,40.47
2023-02-14T00:16:28.100Z,44.78
2023-02-14T00:19:51.069Z,46.20
2023-02-14T00:23:13.823Z,44.30
2023-02-14T00:26:38.778Z,47.38
2023-02-14T00:30:03.092Z,46.08
2023-02-14T00:33:27.059Z,46.00
2023-02-14T00:36:49.507Z,47.58
2023-02-14T00:40:15.235Z,42.47
2023-02-14T00:43:37.373Z,39.55
2023-02-14T00:47:00.294Z,45.25
2023-02-14T00:50:24.171Z,45.60
2023-02-14T00:53:47.491Z,54.13
2023-02-14T00:57:09.833Z,52.10
2023-02-14T01:00:33.068Z,48.90
2023-02-14T01:03:55.471Z,46.72
2023-02-14T01:07:19.234Z,51.47
2023-02-14T01:10:41.665Z,52.93
2023-02-14T01:14:04.131Z,47.55
2023-02-14T01:17:26.688Z,50.90
2023-02-14T01:20:49.682Z,44.80
2023-02-14T01:24:13.492Z,50.23
2023-02-14T01:27:37.126Z,44.78
2023-02-14T01:30:59.603Z,43.83
2023-02-14T01:34:22.886Z,44.60
2023-02-14T01:37:45.311Z,45.73
2023-02-14T01:41:09.421Z,43.78
2023-02-14T01:44:58.894Z,52.67
2023-02-14T01:48:22.261Z,43.40
2023-02-14T01:51:45.522Z,46.13
2023-02-14T01:55:13.030Z,47.10
2023-02-14T01:58:40.819Z,41.25
2023-02-14T02:02:04.231Z,49.42
2023-02-14T02:05:27.274Z,52.03
2023-02-14T02:08:53.192Z,44.33
2023-02-14T02:12:15.650Z,43.63
2023-02-14T02:15:43.748Z,44.35
2023-02-14T02:19:22.269Z,42.35
2023-02-14T02:23:21.562Z,44.47
2023-02-14T02:27:26.230Z,53.72
2023-02-14T02:31:03.222Z,44.67
2023-02-14T02:34:43.956Z,47.95
2023-02-14T02:38:15.923Z,45.25
2023-02-14T02:41:49.212Z,44.23
2023-02-14T02:45:13.951Z,44.15
2023-02-14T02:48:38.524Z,47.53
2023-02-14T02:52:19.285Z,47.80
2023-02-14T02:56:02.233Z,42.67
2023-02-14T02:59:25.881Z,42.85
2023-02-14T03:03:07.999Z,44.83
2023-02-14T03:06:31.344Z,43.00
2023-02-14T03:09:58.175Z,37.40
2023-02-14T03:13:46.238Z,43.15
2023-02-14T03:17:11.015Z,47.65
2023-02-14T03:20:37.023Z,41.22
2023-02-14T03:24:05.435Z,44.28
2023-02-14T03:27:29.727Z,40.03
2023-02-14T03:30:59.582Z,40.05
2023-02-14T03:34:24.949Z,48.40
2023-02-14T03:37:50.042Z,43.83
2023-02-14T03:41:13.943Z,41.67
2023-02-14T03:44:36.547Z,45.97
2023-02-14T03:48:03.364Z,47.22
2023-02-14T03:51:26.180Z,51.33
2023-02-14T03:54:49.065Z,50.67
2023-02-14T03:58:13.505Z,51.75
2023-02-14T04:01:37.750Z,49.47
2023-02-14T04:05:02.278Z,60.05
2023-02-14T04:08:28.063Z,56.08
2023-02-14T04:11:51.464Z,50.53
2023-02-14T04:15:14.180Z,57.97
2023-02-14T04:18:54.511Z,51.83
2023-02-14T04:22:18.382Z,60.35
2023-02-14T04:25:43.107Z,55.57
2023-02-14T04:29:05.258Z,44.65
2023-02-14T04:32:28.262Z,53.30
2023-02-14T04:35:50.691Z,52.00
2023-02-14T04:39:14.616Z,54.97
2023-02-14T04:42:37.065Z,48.60
2023-02-14T04:45:59.721Z,48.35
2023-02-14T04:49:22.137Z,52.15
2023-02-14T04:52:45.226Z,50.33
2023-02-14T04:56:09.551Z,48.70
2023-02-14T04:59:32.444Z,50.83
2023-02-14T05:02:55.007Z,48.33
2023-02-14T05:06:17.580Z,42.88
2023-02-14T05:09:40.025Z,45.93
2023-02-14T05:13:04.240Z,46.17
2023-02-14T05:16:26.609Z,45.28
2023-02-14T05:19:49.620Z,50.70
2023-02-14T05:23:13.908Z,43.33
2023-02-14T05:26:36.985Z,42.83
2023-02-14T05:30:00.807Z,43.05
2023-02-14T05:33:23.588Z,40.67
2023-02-14T05:36:46.017Z,36.80
2023-02-14T05:40:09.729Z,42.62
2023-02-14T05:43:32.437Z,49.25
2023-02-14T05:46:56.582Z,45.78
2023-02-14T05:50:19.511Z,53.03
2023-02-14T05:53:42.110Z,46.95
2023-02-14T05:57:04.764Z,46.55
2023-02-14T06:00:28.136Z,46.58
2023-02-14T06:03:52.354Z,42.08
2023-02-14T06:07:15.094Z,41.83
2023-02-14T06:10:38.043Z,41.70
2023-02-14T06:14:00.540Z,47.47
2023-02-14T06:17:23.672Z,44.30
2023-02-14T06:20:47.732Z,40.03
2023-02-14T06:24:10.592Z,43.05
2023-02-14T06:27:33.343Z,39.03
2023-02-14T06:30:56.281Z,42.03
2023-02-14T06:34:18.731Z,46.78
2023-02-14T06:37:42.629Z,52.97
2023-02-14T06:41:05.951Z,43.75
2023-02-14T06:44:29.392Z,47.03
2023-02-14T06:47:51.872Z,40.15
2023-02-14T06:51:14.385Z,52.90
2023-02-14T06:54:38.396Z,39.92
2023-02-14T06:58:00.676Z,43.22
2023-02-14T07:01:23.408Z,41.47
2023-02-14T07:04:46.487Z,41.67
2023-02-14T07:08:09.279Z,37.72
2023-02-14T07:11:33.516Z,41.30
2023-02-14T07:14:55.967Z,38.17
2023-02-14T07:18:19.068Z,43.95
2023-02-14T07:21:41.691Z,36.63
2023-02-14T07:25:04.442Z,32.25
2023-02-14T07:28:28.020Z,28.50
2023-02-14T07:31:50.953Z,32.83
2023-02-14T07:35:16.343Z,33.78
2023-02-14T07:38:38.999Z,30.70
2023-02-14T07:42:01.269Z,28.10
2023-02-14T07:45:26.776Z,34.53
2023-02-14T07:48:51.765Z,32.38
2023-02-14T07:52:14.225Z,31.25
2023-02-14T07:55:36.773Z,30.62
2023-02-14T07:58:59.465Z,33.53
2023-02-14T08:02:23.404Z,27.62
2023-02-14T08:05:57.049Z,26.30
2023-02-14T08:09:24.851Z,33.03
2023-02-14T08:13:03.491Z,27.23
2023-02-14T08:16:25.723Z,30.02
2023-02-14T08:19:50.127Z,26.75
2023-02-14T08:23:12.661Z,24.42
2023-02-14T08:26:35.627Z,26.90
2023-02-14T08:29:58.162Z,26.70
2023-02-14T08:33:20.794Z,26.95
2023-02-14T08:36:44.597Z,26.50
2023-02-14T08:40:08.776Z,24.00
2023-02-14T08:43:33.285Z,28.73
2023-02-14T08:46:56.917Z,26.27
2023-02-14T08:50:19.711Z,25.30
2023-02-14T08:53:44.084Z,30.33
2023-02-14T08:57:06.829Z,29.70
2023-02-14T09:00:29.814Z,25.80
2023-02-14T09:03:52.536Z,29.85
2023-02-14T09:07:15.484Z,30.65
2023-02-14T09:10:39.391Z,34.95
2023-02-14T09:14:04.681Z,32.60
2023-02-14T09:17:27.510Z,33.00
2023-02-14T09:20:50.509Z,30.40
2023-02-14T09:24:12.929Z,29.77
2023-02-14T09:27:39.202Z,37.42
2023-02-14T09:31:08.923Z,29.50
2023-02-14T09:34:32.091Z,30.10
2023-02-14T09:37:54.597Z,32.95
2023-02-14T09:41:44.763Z,35.60
2023-02-14T09:45:11.776Z,42.85
2023-02-14T09:48:36.330Z,41.47
2023-02-14T09:51:58.481Z,34.70
2023-02-14T09:55:21.137Z,37.03
2023-02-14T09:58:46.014Z,41.65
2023-02-14T10:02:26.743Z,34.03
2023-02-14T10:05:51.947Z,37.23
2023-02-14T10:09:21.286Z,44.47
2023-02-14T10:12:46.581Z,32.40
2023-02-14T10:16:13.056Z,37.28
2023-02-14T10:19:39.616Z,35.63
2023-02-14T10:23:05.571Z,37.03
2023-02-14T10:26:31.453Z,37.70
2023-02-14T10:29:53.829Z,32.17
2023-02-14T10:33:17.788Z,37.03
2023-02-14T10:36:49.479Z,35.53
2023-02-14T10:40:30.915Z,36.30
2023-02-14T10:43:57.330Z,30.50
2023-02-14T10:47:35.897Z,33.83
2023-02-14T10:51:01.901Z,30.85
2023-02-14T10:54:27.395Z,30.83
2023-02-14T10:57:51.382Z,30.43
2023-02-14T11:01:14.925Z,34.30
2023-02-14T11:04:41.557Z,32.00
2023-02-14T11:08:14.608Z,29.48
2023-02-14T11:11:39.768Z,28.38
2023-02-14T11:15:15.618Z,28.07
2023-02-14T11:18:39.696Z,28.27
2023-02-14T11:22:02.709Z,24.25
2023-02-14T11:25:26.968Z,23.05
2023-02-14T11:28:56.915Z,31.05
2023-02-14T11:32:22.792Z,20.67
2023-02-14T11:35:45.927Z,24.10
2023-02-14T11:39:15.890Z,21.85
2023-02-14T11:42:43.258Z,23.15
2023-02-14T11:46:09.442Z,28.42
2023-02-14T11:49:33.077Z,31.57
2023-02-14T11:52:57.130Z,25.08
2023-02-14T11:56:21.418Z,23.25
2023-02-14T11:59:45.761Z,25.55
2023-02-14T12:03:16.775Z,21.15
2023-02-14T12:06:39.309Z,25.93
2023-02-14T12:10:21.869Z,28.80
2023-02-14T12:13:45.340Z,24.12
2023-02-14T12:17:11.043Z,20.90
2023-02-14T12:20:41.913Z,16.40
2023-02-14T12:24:06.582Z,19.70
2023-02-14T12:27:30.497Z,16.67
2023-02-14T12:30:53.003Z,18.55
2023-02-14T12:34:16.115Z,17.98
2023-02-14T12:37:56.071Z,22.60
2023-02-14T12:41:31.960Z,23.07
2023-02-14T12:44:57.849Z,23.62
2023-02-14T12:48:24.909Z,24.15
2023-02-14T12:51:50.505Z,21.90
2023-02-14T12:55:29.661Z,22.50
2023-02-14T12:58:58.063Z,23.73
2023-02-14T13:02:50.799Z,33.17
2023-02-14T13:06:16.440Z,24.33
2023-02-14T13:09:42.371Z,22.13
2023-02-14T13:13:08.905Z,21.00
2023-02-14T13:16:35.298Z,22.73
2023-02-14T13:20:01.169Z,20.55
2023-02-14T13:23:27.535Z,25.35
2023-02-14T13:26:53.804Z,23.42
2023-02-14T13:30:27.614Z,23.17
2023-02-14T13:33:52.530Z,23.80
2023-02-14T13:37:16.309Z,20.67
2023-02-14T13:40:38.785Z,22.35
2023-02-14T13:44:01.784Z,21.80
2023-02-14T13:47:25.774Z,22.50
2023-02-14T13:50:51.737Z,22.50
2023-02-14T13:54:29.861Z,24.95
2023-02-14T13:58:02.049Z,21.00
2023-02-14T14:01:32.806Z,20.67
2023-02-14T14:04:59.193Z,24.73
2023-02-14T14:08:40.781Z,26.40
2023-02-14T14:12:03.983Z,26.55
2023-02-14T14:15:26.730Z,34.20
2023-02-14T14:18:50.068Z,23.08
2023-02-14T14:22:15.419Z,24.23
2023-02-14T14:25:39.586Z,22.37
2023-02-14T14:29:02.174Z,19.90
2023-02-14T14:32:29.590Z,28.15
2023-02-14T14:35:54.055Z,22.62
2023-02-14T14:39:28.256Z,18.90
2023-02-14T14:42:50.436Z,25.63
2023-02-14T14:46:13.840Z,19.10
2023-02-14T14:49:36.335Z,23.90
2023-02-14T14:53:01.327Z,22.48
2023-02-14T14:56:26.397Z,26.52
2023-02-14T14:59:49.618Z,25.40
2023-02-14T15:03:17.444Z,23.35
2023-02-14T15:06:41.035Z,22.92
2023-02-14T15:10:03.666Z,32.72
2023-02-14T15:13:50.885Z,35.83
2023-02-14T15:17:15.734Z,33.30
2023-02-14T15:20:39.645Z,27.10
2023-02-14T15:24:03.011Z,25.37
2023-02-14T15:27:26.412Z,25.00
2023-02-14T15:30:50.323Z,24.25
2023-02-14T15:34:13.564Z,31.93
2023-02-14T15:37:36.129Z,33.05
2023-02-14T15:40:59.519Z,32.65
2023-02-14T15:44:22.615Z,39.75
2023-02-14T15:47:48.750Z,53.33
2023-02-14T15:51:17.730Z,46.20
2023-02-14T15:54:42.734Z,38.92
2023-02-14T15:58:06.062Z,34.92
2023-02-14T16:01:30.392Z,53.67
2023-02-14T16:04:55.324Z,40.88
2023-02-14T16:08:27.823Z,37.10
2023-02-14T16:11:50.739Z,33.75
2023-02-14T16:15:20.194Z,41.63
2023-02-14T16:18:45.733Z,53.33
2023-02-14T16:22:10.810Z,64.05
2023-02-14T16:25:34.216Z,86.03
2023-02-14T16:28:56.998Z,139.65
2023-02-14T16:32:21.573Z,99.43
2023-02-14T16:35:45.937Z,61.30
2023-02-14T16:39:15.465Z,248.50
2023-02-14T16:42:40.302Z,241.63
2023-02-14T16:46:04.486Z,230.77
2023-02-14T16:49:28.664Z,282.75
2023-02-14T16:52:52.895Z,170.07
2023-02-14T16:56:19.662Z,166.15
2023-02-14T16:59:52.965Z,109.53
2023-02-14T17:03:15.420Z,104.78
2023-02-14T17:06:39.675Z,118.05
2023-02-14T17:10:03.470Z,117.20
2023-02-14T17:13:29.125Z,140.90
2023-02-14T17:16:54.305Z,125.50
2023-02-14T17:20:22.092Z,103.15
2023-02-14T17:23:46.044Z,90.32
2023-02-14T17:27:09.964Z,101.43
2023-02-14T17:30:36.222Z,83.27
2023-02-14T17:34:01.530Z,81.87
2023-02-14T17:37:24.705Z,61.72
2023-02-14T17:40:50.146Z,46.13
2023-02-14T17:44:14.060Z,40.78
2023-02-14T17:47:39.141Z,31.13
2023-02-14T17:51:06.393Z,35.00
2023-02-14T17:54:31.559Z,32.72
2023-02-14T17:57:55.525Z,41.97
2023-02-14T18:01:24.215Z,36.83
2023-02-14T18:04:52.601Z,39.60
2023-02-14T18:08:17.197Z,40.33
2023-02-14T18:11:42.759Z,50.55
2023-02-14T18:15:07.103Z,44.72
2023-02-14T18:18:32.196Z,37.97
2023-02-14T18:21:57.974Z,29.13
2023-02-14T18:25:23.254Z,32.60
2023-02-14T18:28:47.092Z,37.78
2023-02-14T18:32:11.714Z,33.88
2023-02-14T18:35:38.049Z,39.10
2023-02-14T18:39:22.446Z,35.70
2023-02-14T18:42:47.075Z,45.28
2023-02-14T18:46:13.338Z,34.67
2023-02-14T18:49:39.376Z,40.97
2023-02-14T18:53:03.944Z,53.28
2023-02-14T18:56:36.249Z,39.43
2023-02-14T19:00:01.362Z,42.42
2023-02-14T19:03:25.579Z,40.53
2023-02-14T19:06:50.490Z,44.20
2023-02-14T19:10:15.825Z,57.03
2023-02-14T19:13:46.467Z,47.57
2023-02-14T19:17:12.079Z,58.75
2023-02-14T19:20:38.648Z,64.28
2023-02-14T19:24:09.570Z,48.78
2023-02-14T19:27:35.349Z,54.20
2023-02-14T19:31:04.824Z,53.93
2023-02-14T19:34:32.054Z,64.10
2023-02-14T19:37:57.591Z,62.42
2023-02-14T19:41:23.335Z,57.92
2023-02-14T19:44:47.881Z,56.03
2023-02-14T19:48:15.266Z,61.50
2023-02-14T19:51:39.827Z,51.40
2023-02-14T19:55:07.167Z,56.25
2023-02-14T19:58:34.480Z,58.67
2023-02-14T20:02:01.077Z,61.95
2023-02-14T20:05:29.256Z,55.90
2023-02-14T20:08:57.838Z,54.13
2023-02-14T20:12:22.085Z,52.30
2023-02-14T20:15:48.093Z,45.55
2023-02-14T20:19:14.734Z,42.72
2023-02-14T20:22:43.699Z,42.43
2023-02-14T20:26:18.325Z,44.72
2023-02-14T20:29:45.572Z,43.85
2023-02-14T20:33:16.354Z,40.12
2023-02-14T20:36:41.905Z,45.30
2023-02-14T20:40:11.566Z,41.88
2023-02-14T20:43:37.810Z,45.67
2023-02-14T20:47:03.345Z,48.15
2023-02-14T20:50:28.573Z,256.30
2023-02-14T20:53:59.878Z,61.07
2023-02-14T20:57:28.071Z,45.50
2023-02-14T21:00:55.503Z,44.58
2023-02-14T21:04:20.986Z,47.42
2023-02-14T21:07:52.630Z,49.45
2023-02-14T21:11:18.118Z,46.63
2023-02-14T21:14:46.829Z,44.50
2023-02-14T21:18:11.479Z,61.28
2023-02-14T21:21:36.859Z,62.55
2023-02-14T21:25:02.931Z,77.25
2023-02-14T21:28:28.264Z,70.87
2023-02-14T21:31:54.253Z,76.53
2023-02-14T21:35:24.382Z,87.53
2023-02-14T21:38:49.142Z,92.10
2023-02-14T21:42:17.794Z,80.72
2023-02-14T21:45:57.523Z,72.45
2023-02-14T21:49:40.213Z,77.35
2023-02-14T21:53:07.933Z,101.50
2023-02-14T21:56:31.944Z,95.57
2023-02-14T21:59:55.716Z,108.13
2023-02-14T22:03:19.371Z,104.72
2023-02-14T22:06:47.530Z,104.07
2023-02-14T22:10:12.987Z,103.00
2023-02-14T22:13:36.316Z,109.30
2023-02-14T22:16:59.052Z,96.45
2023-02-14T22:20:21.738Z,98.45
2023-02-14T22:23:46.088Z,108.70
2023-02-14T22:27:09.018Z,100.20
2023-02-14T22:30:31.481Z,100.60
2023-02-14T22:33:54.075Z,102.90
2023-02-14T22:37:16.556Z,98.75
2023-02-14T22:40:43.279Z,95.80
2023-02-14T22:44:05.946Z,96.55
2023-02-14T22:47:28.608Z,89.45
2023-02-14T22:50:51.131Z,92.78
2023-02-14T22:54:14.955Z,89.65
2023-02-14T22:57:38.901Z,89.37
2023-02-14T23:01:01.694Z,90.00
2023-02-14T23:04:24.879Z,92.15
2023-02-14T23:07:49.684Z,94.82
2023-02-14T23:11:14.668Z,90.03
2023-02-14T23:14:56.203Z,82.43
2023-02-14T23:18:36.497Z,86.43
2023-02-14T23:21:59.234Z,74.95
2023-02-14T23:25:21.539Z,69.87
2023-02-14T23:28:44.021Z,72.50
2023-02-14T23:32:08.008Z,69.25
2023-02-14T23:35:31.150Z,66.78
2023-02-14T23:38:53.655Z,67.65
2023-02-14T23:42:16.195Z,63.72
2023-02-14T23:45:41.194Z,67.70
2023-02-14T23:49:06.596Z,63.20
2023-02-14T23:52:29.240Z,62.38
2023-02-14T23:55:51.837Z,69.18
2023-02-14T23:59:14.663Z,68.35
